sensor_id;sensor_type;location;lat;lon;timestamp;P1;durP1;ratioP1;P2;durP2;ratioP2
78732;SDS011;68056;52.530;5.454;2023-07-31T05:44:03;9.55;;;3.33;;
78732;SDS011;68056;52.530;5.454;2023-07-31T05:47:33;10.88;;;3.20;;
78732;SDS011;68056;52.530;5.454;2023-07-31T05:53:41;8.43;;;2.80;;
78732;SDS011;68056;52.530;5.454;2023-07-31T05:56:08;7.60;;;2.95;;
78732;SDS011;68056;52.530;5.454;2023-07-31T06:07:48;3.42;;;1.88;;
78732;SDS011;68056;52.530;5.454;2023-07-31T06:10:50;4.82;;;1.92;;
78732;SDS011;68056;52.530;5.454;2023-07-31T06:13:19;4.00;;;1.30;;
78732;SDS011;68056;52.530;5.454;2023-07-31T06:18:47;4.28;;;1.80;;
78732;SDS011;68056;52.530;5.454;2023-07-31T06:24:33;2.15;;;1.38;;
78732;SDS011;68056;52.530;5.454;2023-07-31T06:27:05;2.28;;;1.45;;
78732;SDS011;68056;52.530;5.454;2023-07-31T06:29:34;1.38;;;1.00;;
78732;SDS011;68056;52.530;5.454;2023-07-31T06:35:40;1.25;;;1.10;;
78732;SDS011;68056;52.530;5.454;2023-07-31T06:45:27;1.63;;;1.05;;
78732;SDS011;68056;52.530;5.454;2023-07-31T06:51:20;2.50;;;1.30;;
78732;SDS011;68056;52.530;5.454;2023-07-31T06:57:44;2.40;;;1.17;;
78732;SDS011;68056;52.530;5.454;2023-07-31T07:00:10;2.28;;;1.23;;
78732;SDS011;68056;52.530;5.454;2023-07-31T07:02:45;2.00;;;1.05;;
78732;SDS011;68056;52.530;5.454;2023-07-31T07:15:09;2.50;;;1.10;;
78732;SDS011;68056;52.530;5.454;2023-07-31T07:17:57;2.28;;;1.30;;
78732;SDS011;68056;52.530;5.454;2023-07-31T07:20:25;1.33;;;1.00;;
78732;SDS011;68056;52.530;5.454;2023-07-31T07:22:51;0.98;;;0.80;;
78732;SDS011;68056;52.530;5.454;2023-07-31T07:25:17;1.52;;;1.05;;
78732;SDS011;68056;52.530;5.454;2023-07-31T07:27:45;1.02;;;0.65;;
78732;SDS011;68056;52.530;5.454;2023-07-31T07:30:11;1.40;;;1.00;;
78732;SDS011;68056;52.530;5.454;2023-07-31T07:32:39;1.20;;;1.10;;
78732;SDS011;68056;52.530;5.454;2023-07-31T07:35:11;0.90;;;0.60;;
78732;SDS011;68056;52.530;5.454;2023-07-31T07:37:37;2.65;;;1.05;;
78732;SDS011;68056;52.530;5.454;2023-07-31T07:40:05;1.17;;;0.70;;
78732;SDS011;68056;52.530;5.454;2023-07-31T07:42:41;1.63;;;0.80;;
78732;SDS011;68056;52.530;5.454;2023-07-31T07:45:07;0.70;;;0.60;;
78732;SDS011;68056;52.530;5.454;2023-07-31T07:47:54;1.10;;;0.80;;
78732;SDS011;68056;52.530;5.454;2023-07-31T07:50:43;0.90;;;0.70;;
78732;SDS011;68056;52.530;5.454;2023-07-31T07:53:27;2.75;;;0.80;;
78732;SDS011;68056;52.530;5.454;2023-07-31T07:55:53;1.40;;;0.77;;
78732;SDS011;68056;52.530;5.454;2023-07-31T07:58:21;0.55;;;0.55;;
78732;SDS011;68056;52.530;5.454;2023-07-31T08:00:52;1.33;;;0.63;;
78732;SDS011;68056;52.530;5.454;2023-07-31T08:03:20;0.95;;;0.52;;
78732;SDS011;68056;52.530;5.454;2023-07-31T08:05:51;0.77;;;0.77;;
78732;SDS011;68056;52.530;5.454;2023-07-31T08:08:17;1.00;;;0.70;;
78732;SDS011;68056;52.530;5.454;2023-07-31T08:13:52;0.80;;;0.55;;
78732;SDS011;68056;52.530;5.454;2023-07-31T08:16:32;1.70;;;0.70;;
78732;SDS011;68056;52.530;5.454;2023-07-31T08:19:13;1.27;;;0.60;;
78732;SDS011;68056;52.530;5.454;2023-07-31T08:21:39;0.65;;;0.52;;
78732;SDS011;68056;52.530;5.454;2023-07-31T08:24:08;0.70;;;0.50;;
78732;SDS011;68056;52.530;5.454;2023-07-31T08:27:09;0.50;;;0.50;;
78732;SDS011;68056;52.530;5.454;2023-07-31T08:29:45;0.52;;;0.47;;
78732;SDS011;68056;52.530;5.454;2023-07-31T08:32:17;0.50;;;0.50;;
78732;SDS011;68056;52.530;5.454;2023-07-31T08:34:52;0.70;;;0.32;;
78732;SDS011;68056;52.530;5.454;2023-07-31T08:37:27;0.30;;;0.30;;
78732;SDS011;68056;52.530;5.454;2023-07-31T08:39:53;0.47;;;0.47;;
78732;SDS011;68056;52.530;5.454;2023-07-31T08:42:23;1.60;;;0.60;;
78732;SDS011;68056;52.530;5.454;2023-07-31T08:44:50;0.32;;;0.30;;
78732;SDS011;68056;52.530;5.454;2023-07-31T08:47:19;0.77;;;0.30;;
78732;SDS011;68056;52.530;5.454;2023-07-31T08:52:45;0.98;;;0.30;;
78732;SDS011;68056;52.530;5.454;2023-07-31T08:55:12;0.20;;;0.20;;
78732;SDS011;68056;52.530;5.454;2023-07-31T08:57:51;0.80;;;0.28;;
78732;SDS011;68056;52.530;5.454;2023-07-31T09:03:08;1.10;;;0.40;;
78732;SDS011;68056;52.530;5.454;2023-07-31T09:05:36;0.45;;;0.25;;
78732;SDS011;68056;52.530;5.454;2023-07-31T09:08:29;0.32;;;0.28;;
78732;SDS011;68056;52.530;5.454;2023-07-31T09:11:01;0.90;;;0.38;;
78732;SDS011;68056;52.530;5.454;2023-07-31T09:13:33;1.35;;;0.30;;
78732;SDS011;68056;52.530;5.454;2023-07-31T09:15:59;0.20;;;0.20;;
78732;SDS011;68056;52.530;5.454;2023-07-31T09:18:35;0.20;;;0.20;;
78732;SDS011;68056;52.530;5.454;2023-07-31T09:21:32;0.73;;;0.20;;
78732;SDS011;68056;52.530;5.454;2023-07-31T09:24:18;0.40;;;0.28;;
78732;SDS011;68056;52.530;5.454;2023-07-31T09:27:05;1.70;;;0.50;;
78732;SDS011;68056;52.530;5.454;2023-07-31T09:29:31;1.42;;;0.50;;
78732;SDS011;68056;52.530;5.454;2023-07-31T09:31:57;2.47;;;0.60;;
78732;SDS011;68056;52.530;5.454;2023-07-31T09:34:28;0.45;;;0.30;;
78732;SDS011;68056;52.530;5.454;2023-07-31T09:37:14;1.27;;;0.40;;
78732;SDS011;68056;52.530;5.454;2023-07-31T09:39:47;0.38;;;0.30;;
78732;SDS011;68056;52.530;5.454;2023-07-31T09:45:27;1.15;;;0.40;;
78732;SDS011;68056;52.530;5.454;2023-07-31T09:48:23;1.88;;;0.52;;
78732;SDS011;68056;52.530;5.454;2023-07-31T09:53:29;2.47;;;0.70;;
78732;SDS011;68056;52.530;5.454;2023-07-31T09:56:11;1.00;;;0.80;;
78732;SDS011;68056;52.530;5.454;2023-07-31T09:58:37;1.92;;;0.55;;
78732;SDS011;68056;52.530;5.454;2023-07-31T10:01:03;1.77;;;0.57;;
78732;SDS011;68056;52.530;5.454;2023-07-31T10:03:31;2.13;;;0.60;;
78732;SDS011;68056;52.530;5.454;2023-07-31T10:06:10;2.80;;;0.85;;
78732;SDS011;68056;52.530;5.454;2023-07-31T10:08:43;1.88;;;0.95;;
78732;SDS011;68056;52.530;5.454;2023-07-31T10:11:11;1.60;;;0.90;;
78732;SDS011;68056;52.530;5.454;2023-07-31T10:13:42;5.40;;;1.20;;
78732;SDS011;68056;52.530;5.454;2023-07-31T10:16:27;5.07;;;1.05;;
78732;SDS011;68056;52.530;5.454;2023-07-31T10:22:58;5.68;;;1.58;;
78732;SDS011;68056;52.530;5.454;2023-07-31T10:26:32;8.65;;;2.05;;
78732;SDS011;68056;52.530;5.454;2023-07-31T10:29:34;4.50;;;1.40;;
78732;SDS011;68056;52.530;5.454;2023-07-31T10:32:30;3.58;;;1.90;;
78732;SDS011;68056;52.530;5.454;2023-07-31T10:51:39;2.85;;;1.30;;
78732;SDS011;68056;52.530;5.454;2023-07-31T10:54:18;4.78;;;1.20;;
78732;SDS011;68056;52.530;5.454;2023-07-31T11:03:16;5.05;;;1.38;;
78732;SDS011;68056;52.530;5.454;2023-07-31T11:06:01;7.20;;;1.75;;
78732;SDS011;68056;52.530;5.454;2023-07-31T11:08:43;6.38;;;1.60;;
78732;SDS011;68056;52.530;5.454;2023-07-31T11:11:35;6.32;;;2.05;;
78732;SDS011;68056;52.530;5.454;2023-07-31T11:14:02;7.05;;;1.98;;
78732;SDS011;68056;52.530;5.454;2023-07-31T11:16:34;5.82;;;1.65;;
78732;SDS011;68056;52.530;5.454;2023-07-31T11:19:30;5.70;;;2.03;;
78732;SDS011;68056;52.530;5.454;2023-07-31T11:22:01;5.80;;;1.83;;
78732;SDS011;68056;52.530;5.454;2023-07-31T11:24:33;5.95;;;1.50;;
78732;SDS011;68056;52.530;5.454;2023-07-31T11:27:07;7.18;;;1.73;;
78732;SDS011;68056;52.530;5.454;2023-07-31T11:29:46;5.85;;;1.90;;
78732;SDS011;68056;52.530;5.454;2023-07-31T11:33:03;6.65;;;1.77;;
78732;SDS011;68056;52.530;5.454;2023-07-31T11:35:58;3.72;;;1.85;;
78732;SDS011;68056;52.530;5.454;2023-07-31T11:38:27;5.07;;;1.55;;
78732;SDS011;68056;52.530;5.454;2023-07-31T11:41:33;5.32;;;1.45;;
78732;SDS011;68056;52.530;5.454;2023-07-31T11:44:38;8.70;;;1.63;;
78732;SDS011;68056;52.530;5.454;2023-07-31T11:47:06;5.40;;;1.67;;
78732;SDS011;68056;52.530;5.454;2023-07-31T11:49:37;8.68;;;2.00;;
78732;SDS011;68056;52.530;5.454;2023-07-31T11:52:06;6.97;;;2.10;;
78732;SDS011;68056;52.530;5.454;2023-07-31T11:55:11;4.75;;;1.30;;
78732;SDS011;68056;52.530;5.454;2023-07-31T11:58:35;6.53;;;2.00;;
78732;SDS011;68056;52.530;5.454;2023-07-31T12:01:08;8.50;;;1.70;;
78732;SDS011;68056;52.530;5.454;2023-07-31T12:20:55;5.78;;;2.03;;
78732;SDS011;68056;52.530;5.454;2023-07-31T12:32:31;4.82;;;1.85;;
78732;SDS011;68056;52.530;5.454;2023-07-31T12:35:00;8.07;;;1.88;;
78732;SDS011;68056;52.530;5.454;2023-07-31T12:37:35;4.80;;;1.38;;
78732;SDS011;68056;52.530;5.454;2023-07-31T12:40:09;4.00;;;1.50;;
78732;SDS011;68056;52.530;5.454;2023-07-31T12:42:38;3.92;;;1.60;;
78732;SDS011;68056;52.530;5.454;2023-07-31T12:45:08;5.40;;;1.55;;
78732;SDS011;68056;52.530;5.454;2023-07-31T12:47:37;7.03;;;1.95;;
78732;SDS011;68056;52.530;5.454;2023-07-31T12:50:06;3.38;;;1.40;;
78732;SDS011;68056;52.530;5.454;2023-07-31T12:52:35;5.15;;;1.33;;
78732;SDS011;68056;52.530;5.454;2023-07-31T12:55:03;3.22;;;1.38;;
78732;SDS011;68056;52.530;5.454;2023-07-31T12:57:54;6.35;;;1.65;;
78732;SDS011;68056;52.530;5.454;2023-07-31T13:00:20;7.00;;;1.90;;
78732;SDS011;68056;52.530;5.454;2023-07-31T13:02:47;2.00;;;1.00;;
78732;SDS011;68056;52.530;5.454;2023-07-31T13:05:12;5.32;;;1.48;;
78732;SDS011;68056;52.530;5.454;2023-07-31T13:07:39;4.95;;;2.13;;
78732;SDS011;68056;52.530;5.454;2023-07-31T13:10:08;5.30;;;1.58;;
78732;SDS011;68056;52.530;5.454;2023-07-31T13:12:37;6.93;;;1.95;;
78732;SDS011;68056;52.530;5.454;2023-07-31T13:15:09;4.10;;;1.35;;
78732;SDS011;68056;52.530;5.454;2023-07-31T13:17:37;3.30;;;1.30;;
78732;SDS011;68056;52.530;5.454;2023-07-31T13:20:05;4.55;;;1.40;;
78732;SDS011;68056;52.530;5.454;2023-07-31T13:22:34;7.13;;;2.20;;
78732;SDS011;68056;52.530;5.454;2023-07-31T13:25:16;3.83;;;1.60;;
78732;SDS011;68056;52.530;5.454;2023-07-31T13:27:42;6.93;;;1.70;;
78732;SDS011;68056;52.530;5.454;2023-07-31T13:30:07;4.72;;;1.70;;
78732;SDS011;68056;52.530;5.454;2023-07-31T13:32:33;4.63;;;1.35;;
78732;SDS011;68056;52.530;5.454;2023-07-31T13:35:06;6.53;;;1.30;;
78732;SDS011;68056;52.530;5.454;2023-07-31T13:37:49;3.17;;;1.20;;
78732;SDS011;68056;52.530;5.454;2023-07-31T13:40:38;6.97;;;2.03;;
78732;SDS011;68056;52.530;5.454;2023-07-31T13:46:39;3.63;;;1.20;;
78732;SDS011;68056;52.530;5.454;2023-07-31T13:49:10;5.50;;;1.42;;
78732;SDS011;68056;52.530;5.454;2023-07-31T13:51:36;3.10;;;1.05;;
78732;SDS011;68056;52.530;5.454;2023-07-31T13:54:04;4.00;;;1.58;;
78732;SDS011;68056;52.530;5.454;2023-07-31T13:56:31;4.85;;;1.50;;
78732;SDS011;68056;52.530;5.454;2023-07-31T13:59:14;3.08;;;1.33;;
78732;SDS011;68056;52.530;5.454;2023-07-31T14:01:46;4.57;;;1.80;;
78732;SDS011;68056;52.530;5.454;2023-07-31T14:04:14;3.42;;;1.20;;
78732;SDS011;68056;52.530;5.454;2023-07-31T14:06:48;2.90;;;1.48;;
78732;SDS011;68056;52.530;5.454;2023-07-31T14:09:34;2.97;;;1.13;;
78732;SDS011;68056;52.530;5.454;2023-07-31T14:12:01;3.80;;;1.25;;
78732;SDS011;68056;52.530;5.454;2023-07-31T14:14:51;1.63;;;1.02;;
78732;SDS011;68056;52.530;5.454;2023-07-31T14:17:17;4.03;;;1.08;;
78732;SDS011;68056;52.530;5.454;2023-07-31T14:19:48;1.83;;;0.90;;
78732;SDS011;68056;52.530;5.454;2023-07-31T14:22:26;4.55;;;1.40;;
78732;SDS011;68056;52.530;5.454;2023-07-31T14:25:02;3.83;;;1.27;;
78732;SDS011;68056;52.530;5.454;2023-07-31T14:27:28;4.57;;;1.67;;
78732;SDS011;68056;52.530;5.454;2023-07-31T14:32:46;4.88;;;1.27;;
78732;SDS011;68056;52.530;5.454;2023-07-31T14:35:14;5.13;;;1.30;;
78732;SDS011;68056;52.530;5.454;2023-07-31T14:37:45;3.42;;;1.60;;
78732;SDS011;68056;52.530;5.454;2023-07-31T14:40:13;3.60;;;1.15;;
78732;SDS011;68056;52.530;5.454;2023-07-31T14:42:39;3.08;;;1.25;;
78732;SDS011;68056;52.530;5.454;2023-07-31T14:45:08;3.58;;;1.10;;
78732;SDS011;68056;52.530;5.454;2023-07-31T14:47:37;1.70;;;0.80;;
78732;SDS011;68056;52.530;5.454;2023-07-31T14:50:03;4.75;;;1.20;;
78732;SDS011;68056;52.530;5.454;2023-07-31T14:52:29;3.03;;;1.08;;
78732;SDS011;68056;52.530;5.454;2023-07-31T14:54:55;3.65;;;1.08;;
78732;SDS011;68056;52.530;5.454;2023-07-31T14:57:21;1.95;;;0.95;;
78732;SDS011;68056;52.530;5.454;2023-07-31T15:19:57;1.92;;;0.90;;
78732;SDS011;68056;52.530;5.454;2023-07-31T15:22:30;0.98;;;0.70;;
78732;SDS011;68056;52.530;5.454;2023-07-31T15:25:42;3.47;;;0.80;;
78732;SDS011;68056;52.530;5.454;2023-07-31T15:28:14;3.75;;;1.23;;
78732;SDS011;68056;52.530;5.454;2023-07-31T15:33:51;4.18;;;1.45;;
78732;SDS011;68056;52.530;5.454;2023-07-31T15:37:04;4.22;;;1.52;;
78732;SDS011;68056;52.530;5.454;2023-07-31T15:39:35;2.65;;;1.52;;
78732;SDS011;68056;52.530;5.454;2023-07-31T15:46:06;4.45;;;1.58;;
78732;SDS011;68056;52.530;5.454;2023-07-31T15:51:34;5.22;;;1.60;;
78732;SDS011;68056;52.530;5.454;2023-07-31T16:04:00;5.38;;;1.27;;
78732;SDS011;68056;52.530;5.454;2023-07-31T16:06:28;4.40;;;1.42;;
78732;SDS011;68056;52.530;5.454;2023-07-31T16:09:20;4.35;;;1.23;;
78732;SDS011;68056;52.530;5.454;2023-07-31T16:11:48;3.53;;;1.23;;
78732;SDS011;68056;52.530;5.454;2023-07-31T16:14:14;6.43;;;1.38;;
78732;SDS011;68056;52.530;5.454;2023-07-31T16:16:40;2.47;;;1.42;;
78732;SDS011;68056;52.530;5.454;2023-07-31T16:19:21;6.45;;;1.50;;
78732;SDS011;68056;52.530;5.454;2023-07-31T16:21:47;3.33;;;1.13;;
78732;SDS011;68056;52.530;5.454;2023-07-31T16:24:18;3.50;;;1.23;;
78732;SDS011;68056;52.530;5.454;2023-07-31T16:27:13;4.55;;;1.40;;
78732;SDS011;68056;52.530;5.454;2023-07-31T16:30:07;5.20;;;1.20;;
78732;SDS011;68056;52.530;5.454;2023-07-31T16:32:33;4.50;;;1.48;;
78732;SDS011;68056;52.530;5.454;2023-07-31T16:35:08;4.63;;;1.27;;
78732;SDS011;68056;52.530;5.454;2023-07-31T17:54:21;2.38;;;0.80;;
78732;SDS011;68056;52.530;5.454;2023-07-31T17:56:58;1.77;;;0.90;;
78732;SDS011;68056;52.530;5.454;2023-07-31T17:59:50;2.45;;;1.08;;
78732;SDS011;68056;52.530;5.454;2023-07-31T18:02:16;1.95;;;0.80;;
78732;SDS011;68056;52.530;5.454;2023-07-31T18:04:41;2.40;;;0.82;;
78732;SDS011;68056;52.530;5.454;2023-07-31T18:07:07;1.38;;;0.70;;
78732;SDS011;68056;52.530;5.454;2023-07-31T18:09:32;0.80;;;0.70;;
78732;SDS011;68056;52.530;5.454;2023-07-31T18:11:59;1.38;;;0.98;;
78732;SDS011;68056;52.530;5.454;2023-07-31T18:14:25;1.33;;;0.73;;
78732;SDS011;68056;52.530;5.454;2023-07-31T18:16:53;3.15;;;0.95;;
78732;SDS011;68056;52.530;5.454;2023-07-31T18:19:18;1.80;;;0.80;;
78732;SDS011;68056;52.530;5.454;2023-07-31T18:21:44;1.00;;;0.90;;
78732;SDS011;68056;52.530;5.454;2023-07-31T18:24:10;2.70;;;1.00;;
78732;SDS011;68056;52.530;5.454;2023-07-31T18:26:36;1.85;;;1.20;;
78732;SDS011;68056;52.530;5.454;2023-07-31T18:29:02;3.90;;;1.05;;
78732;SDS011;68056;52.530;5.454;2023-07-31T18:31:28;1.88;;;0.90;;
78732;SDS011;68056;52.530;5.454;2023-07-31T18:33:54;1.88;;;1.10;;
78732;SDS011;68056;52.530;5.454;2023-07-31T18:36:20;1.50;;;0.80;;
78732;SDS011;68056;52.530;5.454;2023-07-31T18:38:46;1.65;;;1.15;;
78732;SDS011;68056;52.530;5.454;2023-07-31T18:41:11;4.93;;;1.33;;
78732;SDS011;68056;52.530;5.454;2023-07-31T18:43:37;3.47;;;1.10;;
78732;SDS011;68056;52.530;5.454;2023-07-31T18:46:03;5.50;;;1.33;;
78732;SDS011;68056;52.530;5.454;2023-07-31T18:48:28;4.35;;;1.20;;
78732;SDS011;68056;52.530;5.454;2023-07-31T18:53:21;4.85;;;1.17;;
78732;SDS011;68056;52.530;5.454;2023-07-31T18:55:47;3.95;;;1.42;;
78732;SDS011;68056;52.530;5.454;2023-07-31T18:58:13;4.15;;;1.40;;
78732;SDS011;68056;52.530;5.454;2023-07-31T19:00:39;4.40;;;1.40;;
78732;SDS011;68056;52.530;5.454;2023-07-31T19:03:05;4.20;;;1.33;;
78732;SDS011;68056;52.530;5.454;2023-07-31T19:05:30;3.03;;;1.23;;
78732;SDS011;68056;52.530;5.454;2023-07-31T19:07:56;2.05;;;0.90;;
78732;SDS011;68056;52.530;5.454;2023-07-31T19:10:24;4.93;;;1.40;;
78732;SDS011;68056;52.530;5.454;2023-07-31T19:12:50;4.88;;;1.17;;
78732;SDS011;68056;52.530;5.454;2023-07-31T19:15:18;2.45;;;1.10;;
78732;SDS011;68056;52.530;5.454;2023-07-31T19:17:43;3.90;;;1.25;;
78732;SDS011;68056;52.530;5.454;2023-07-31T19:20:12;2.90;;;1.13;;
78732;SDS011;68056;52.530;5.454;2023-07-31T19:22:39;4.53;;;1.10;;
78732;SDS011;68056;52.530;5.454;2023-07-31T19:25:05;4.53;;;1.20;;
78732;SDS011;68056;52.530;5.454;2023-07-31T19:27:31;2.92;;;0.98;;
78732;SDS011;68056;52.530;5.454;2023-07-31T19:29:57;2.97;;;1.15;;
78732;SDS011;68056;52.530;5.454;2023-07-31T19:32:23;4.50;;;0.93;;
78732;SDS011;68056;52.530;5.454;2023-07-31T19:34:49;4.80;;;1.00;;
78732;SDS011;68056;52.530;5.454;2023-07-31T19:37:15;3.83;;;1.40;;
78732;SDS011;68056;52.530;5.454;2023-07-31T19:39:41;4.28;;;1.10;;
78732;SDS011;68056;52.530;5.454;2023-07-31T19:42:08;3.42;;;1.02;;
78732;SDS011;68056;52.530;5.454;2023-07-31T19:44:34;2.85;;;1.00;;
78732;SDS011;68056;52.530;5.454;2023-07-31T19:46:59;4.20;;;1.23;;
78732;SDS011;68056;52.530;5.454;2023-07-31T19:49:26;2.67;;;0.90;;
78732;SDS011;68056;52.530;5.454;2023-07-31T19:51:52;3.72;;;1.27;;
78732;SDS011;68056;52.530;5.454;2023-07-31T19:54:18;3.15;;;1.08;;
78732;SDS011;68056;52.530;5.454;2023-07-31T19:56:44;4.57;;;1.30;;
78732;SDS011;68056;52.530;5.454;2023-07-31T19:59:09;2.72;;;0.90;;
78732;SDS011;68056;52.530;5.454;2023-07-31T20:01:35;2.55;;;1.00;;
78732;SDS011;68056;52.530;5.454;2023-07-31T20:04:04;4.38;;;1.33;;
78732;SDS011;68056;52.530;5.454;2023-07-31T20:06:29;3.92;;;1.75;;
78732;SDS011;68056;52.530;5.454;2023-07-31T20:08:58;6.47;;;1.52;;
78732;SDS011;68056;52.530;5.454;2023-07-31T20:11:29;7.63;;;2.08;;
78732;SDS011;68056;52.530;5.454;2023-07-31T20:13:55;6.82;;;1.70;;
78732;SDS011;68056;52.530;5.454;2023-07-31T20:16:21;4.90;;;1.38;;
78732;SDS011;68056;52.530;5.454;2023-07-31T20:19:05;3.42;;;1.88;;
78732;SDS011;68056;52.530;5.454;2023-07-31T20:21:33;4.28;;;1.73;;
78732;SDS011;68056;52.530;5.454;2023-07-31T20:24:07;5.97;;;1.98;;
78732;SDS011;68056;52.530;5.454;2023-07-31T20:26:37;3.88;;;1.23;;
78732;SDS011;68056;52.530;5.454;2023-07-31T20:29:03;3.88;;;1.73;;
78732;SDS011;68056;52.530;5.454;2023-07-31T20:31:29;5.93;;;1.30;;
78732;SDS011;68056;52.530;5.454;2023-07-31T20:33:57;3.83;;;1.77;;
78732;SDS011;68056;52.530;5.454;2023-07-31T20:36:23;4.38;;;1.35;;
78732;SDS011;68056;52.530;5.454;2023-07-31T20:38:49;5.53;;;1.80;;
78732;SDS011;68056;52.530;5.454;2023-07-31T20:41:15;3.38;;;1.30;;
78732;SDS011;68056;52.530;5.454;2023-07-31T20:43:44;4.47;;;1.33;;
78732;SDS011;68056;52.530;5.454;2023-07-31T20:46:10;6.05;;;1.15;;
78732;SDS011;68056;52.530;5.454;2023-07-31T20:48:35;4.93;;;1.13;;
78732;SDS011;68056;52.530;5.454;2023-07-31T20:51:01;2.90;;;1.38;;
78732;SDS011;68056;52.530;5.454;2023-07-31T20:53:27;2.25;;;1.08;;
78732;SDS011;68056;52.530;5.454;2023-07-31T20:55:53;2.42;;;1.40;;
78732;SDS011;68056;52.530;5.454;2023-07-31T20:58:19;3.17;;;1.20;;
78732;SDS011;68056;52.530;5.454;2023-07-31T21:00:44;4.40;;;1.38;;
78732;SDS011;68056;52.530;5.454;2023-07-31T21:03:10;7.03;;;1.70;;
78732;SDS011;68056;52.530;5.454;2023-07-31T21:05:36;5.15;;;1.90;;
78732;SDS011;68056;52.530;5.454;2023-07-31T21:08:02;4.45;;;1.40;;
78732;SDS011;68056;52.530;5.454;2023-07-31T21:10:37;2.55;;;1.17;;
78732;SDS011;68056;52.530;5.454;2023-07-31T21:13:23;4.38;;;1.50;;
78732;SDS011;68056;52.530;5.454;2023-07-31T21:15:50;4.40;;;1.60;;
78732;SDS011;68056;52.530;5.454;2023-07-31T21:18:25;3.65;;;1.60;;
78732;SDS011;68056;52.530;5.454;2023-07-31T21:20:51;5.88;;;1.52;;
78732;SDS011;68056;52.530;5.454;2023-07-31T21:23:19;5.05;;;1.58;;
78732;SDS011;68056;52.530;5.454;2023-07-31T21:26:17;4.65;;;1.70;;
78732;SDS011;68056;52.530;5.454;2023-07-31T21:28:43;6.65;;;1.92;;
78732;SDS011;68056;52.530;5.454;2023-07-31T21:31:15;4.53;;;1.83;;
78732;SDS011;68056;52.530;5.454;2023-07-31T21:33:41;3.15;;;1.20;;
78732;SDS011;68056;52.530;5.454;2023-07-31T21:36:07;4.97;;;2.22;;
78732;SDS011;68056;52.530;5.454;2023-07-31T21:38:33;3.85;;;1.20;;
78732;SDS011;68056;52.530;5.454;2023-07-31T21:40:59;4.25;;;1.52;;
78732;SDS011;68056;52.530;5.454;2023-07-31T21:43:27;6.70;;;1.33;;
78732;SDS011;68056;52.530;5.454;2023-07-31T21:45:53;5.95;;;1.40;;
78732;SDS011;68056;52.530;5.454;2023-07-31T21:48:19;4.90;;;1.60;;
78732;SDS011;68056;52.530;5.454;2023-07-31T22:51:35;3.28;;;1.33;;
78732;SDS011;68056;52.530;5.454;2023-07-31T22:57:31;4.88;;;1.10;;
78732;SDS011;68056;52.530;5.454;2023-07-31T23:03:32;2.58;;;1.33;;
78732;SDS011;68056;52.530;5.454;2023-07-31T23:21:42;4.30;;;1.13;;
78732;SDS011;68056;52.530;5.454;2023-07-31T23:35:16;2.90;;;1.13;;
78732;SDS011;68056;52.530;5.454;2023-07-31T23:41:05;6.32;;;1.92;;
78732;SDS011;68056;52.530;5.454;2023-07-31T23:43:31;5.18;;;2.00;;
78732;SDS011;68056;52.530;5.454;2023-07-31T23:45:57;4.97;;;1.67;;
78732;SDS011;68056;52.530;5.454;2023-07-31T23:48:28;8.88;;;1.52;;
78732;SDS011;68056;52.530;5.454;2023-07-31T23:57:48;6.95;;;1.50;;
